^^
Datos históricos de la estación: Murcia-Puente Tocinos
Diario Informe para Abril 13, 2019 Unidades:  Ambas    Ingés   Métrico
Diario Semanal Mensual Anual
  Máxima: Mínima: Promedio:
Temperatura: 75.6 °F /  24.2 °C 58.8 °F /  14.9 °C 66 °F /  18.9 °C
Punto de rocio: 58.6 °F /  14.8 °C 50 °F /  10 °C 54 °F /  12.2 °C
Humedad: 88.8% 41.2% 67%
Velocidad viento: 10mph /  16.1km/h - 4.2mph /  6.8km/h
Racha viento: 16.3mph /  26.2km/h - -
Viento- - ENE
Presión: 30.1 in /  1019.7 hPa 30 in /  1015.6 hPa -
Precipitación: 0 in /  0.0 mm    
 
 
Tabla de datos para Abril 13, 2019
Hora Temperatura Punto de rocio Presión Viento Velocidad viento Racha viento Humedad Intensidad lluvia(por hora) Nubes
00:04 65.8 °F /  18.8 °C 55 °F /  12.8 °C 30.1in /  1018.9hPa ESE 4mph /  6.5km/h 7mph /  11.3km/h 68% 0in /  0.0mm
00:09 65.8 °F /  18.8 °C 55 °F /  12.8 °C 30.1in /  1018.9hPa ESE 3.6mph /  5.8km/h 5mph /  8km/h 68% 0in /  0.0mm
00:14 65.8 °F /  18.8 °C 55.2 °F /  12.9 °C 30.1in /  1018.9hPa Este 2.4mph /  3.9km/h 5.2mph /  8.4km/h 68.5% 0in /  0.0mm
00:19 65.7 °F /  18.7 °C 55.2 °F /  12.9 °C 30.1in /  1018.9hPa ENE 2.4mph /  3.9km/h 5mph /  8km/h 69% 0in /  0.0mm
00:24 65.5 °F /  18.6 °C 55.4 °F /  13 °C 30.1in /  1018.9hPa Este 2.4mph /  3.9km/h 5mph /  8km/h 69.8% 0in /  0.0mm
00:29 65.3 °F /  18.5 °C 55.4 °F /  13 °C 30.1in /  1018.9hPa NE 2.4mph /  3.9km/h 4.7mph /  7.6km/h 70% 0in /  0.0mm
00:34 64.9 °F /  18.3 °C 55.2 °F /  12.9 °C 30.1in /  1018.9hPa NE 2.4mph /  3.9km/h 5mph /  8km/h 70.6% 0in /  0.0mm
00:39 64.8 °F /  18.2 °C 55 °F /  12.8 °C 30.1in /  1018.9hPa NE 2.7mph /  4.4km/h 5.8mph /  9.3km/h 71% 0in /  0.0mm
00:44 64.4 °F /  18 °C 55 °F /  12.8 °C 30.1in /  1018.9hPa NE 3.6mph /  5.8km/h 6mph /  9.7km/h 71.4% 0in /  0.0mm
00:49 64.2 °F /  17.9 °C 55 °F /  12.8 °C 30.1in /  1018.9hPa NE 3.6mph /  5.8km/h 5.8mph /  9.3km/h 72% 0in /  0.0mm
00:54 64 °F /  17.8 °C 54.9 °F /  12.7 °C 30.1in /  1018.9hPa NE 3.6mph /  5.8km/h 6mph /  9.7km/h 72% 0in /  0.0mm
00:59 64 °F /  17.8 °C 54.7 °F /  12.6 °C 30.1in /  1018.9hPa NE 3.7mph /  6km/h 6mph /  9.7km/h 71.7% 0in /  0.0mm
01:04 64 °F /  17.8 °C 54.3 °F /  12.4 °C 30.1in /  1019.2hPa NE 4mph /  6.5km/h 6.9mph /  11.1km/h 70.6% 0in /  0.0mm
01:09 64 °F /  17.8 °C 54.7 °F /  12.6 °C 30.1in /  1019.2hPa NE 4.3mph /  6.9km/h 8.1mph /  13km/h 71.6% 0in /  0.0mm
01:14 63.9 °F /  17.7 °C 54.9 °F /  12.7 °C 30.1in /  1019.2hPa NE 4.7mph /  7.6km/h 8mph /  12.9km/h 73% 0in /  0.0mm
01:19 63.3 °F /  17.4 °C 55.2 °F /  12.9 °C 30.1in /  1019.2hPa NE 4.7mph /  7.6km/h 8.1mph /  13km/h 74.5% 0in /  0.0mm
01:24 63.1 °F /  17.3 °C 55.2 °F /  12.9 °C 30.1in /  1019.2hPa NE 4.7mph /  7.6km/h 8mph /  12.9km/h 75.3% 0in /  0.0mm
01:29 63 °F /  17.2 °C 55.2 °F /  12.9 °C 30.1in /  1019.2hPa NE 4.7mph /  7.6km/h 7mph /  11.3km/h 76% 0in /  0.0mm
01:34 63 °F /  17.2 °C 55.2 °F /  12.9 °C 30.1in /  1019.2hPa NNE 4.7mph /  7.6km/h 8.1mph /  13km/h 76% 0in /  0.0mm
01:39 62.8 °F /  17.1 °C 55.4 °F /  13 °C 30.1in /  1019.2hPa NE 4.7mph /  7.6km/h 8mph /  12.9km/h 76.8% 0in /  0.0mm
01:44 62.6 °F /  17 °C 55.4 °F /  13 °C 30.1in /  1019.2hPa NE 4.7mph /  7.6km/h 7mph /  11.3km/h 77% 0in /  0.0mm
01:49 62.4 °F /  16.9 °C 55.2 °F /  12.9 °C 30.1in /  1019.2hPa NNE 4.7mph /  7.6km/h 7.4mph /  11.9km/h 77.2% 0in /  0.0mm
01:54 62.2 °F /  16.8 °C 55.4 °F /  13 °C 30.1in /  1019.2hPa NNE 4.7mph /  7.6km/h 7mph /  11.3km/h 78% 0in /  0.0mm
01:59 62.1 °F /  16.7 °C 55.2 °F /  12.9 °C 30.1in /  1019.2hPa NNE 4.5mph /  7.3km/h 7mph /  11.3km/h 78% 0in /  0.0mm
02:04 62.1 °F /  16.7 °C 55.4 °F /  13 °C 30.1in /  1019.2hPa NNE 4.3mph /  6.9km/h 6.4mph /  10.3km/h 79% 0in /  0.0mm
02:09 61.9 °F /  16.6 °C 55.2 °F /  12.9 °C 30.1in /  1019.0hPa NNE 4.2mph /  6.7km/h 6mph /  9.7km/h 79% 0in /  0.0mm
02:14 61.9 °F /  16.6 °C 55.2 °F /  12.9 °C 30.1in /  1019.0hPa NNE 4mph /  6.5km/h 5mph /  8km/h 79% 0in /  0.0mm
02:19 61.9 °F /  16.6 °C 55.2 °F /  12.9 °C 30.1in /  1019.0hPa North 3.1mph /  5km/h 5mph /  8km/h 79% 0in /  0.0mm
02:24 61.9 °F /  16.6 °C 55.2 °F /  12.9 °C 30.1in /  1018.9hPa NNE 1.8mph /  2.9km/h 5.2mph /  8.4km/h 79% 0in /  0.0mm
02:29 61.7 °F /  16.5 °C 55.6 °F /  13.1 °C 30.1in /  1018.9hPa NE 2.1mph /  3.3km/h 5mph /  8km/h 80% 0in /  0.0mm
02:34 61.5 °F /  16.4 °C 55.4 °F /  13 °C 30.1in /  1018.9hPa NE 2.4mph /  3.9km/h 5.2mph /  8.4km/h 80.5% 0in /  0.0mm
02:39 61.5 °F /  16.4 °C 55.6 °F /  13.1 °C 30.1in /  1018.8hPa NE 2.6mph /  4.2km/h 5.4mph /  8.7km/h 81% 0in /  0.0mm
02:44 61.5 °F /  16.4 °C 55.6 °F /  13.1 °C 30.1in /  1018.8hPa NNE 2.9mph /  4.6km/h 8.1mph /  13km/h 81.1% 0in /  0.0mm
02:49 61.3 °F /  16.3 °C 55.9 °F /  13.3 °C 30.1in /  1018.8hPa NNE 3mph /  4.8km/h 8mph /  12.9km/h 82% 0in /  0.0mm
02:54 61.3 °F /  16.3 °C 55.8 °F /  13.2 °C 30.1in /  1018.7hPa NE 3.1mph /  5km/h 6.9mph /  11.1km/h 82% 0in /  0.0mm
02:59 61.2 °F /  16.2 °C 55.9 °F /  13.3 °C 30.1in /  1018.7hPa NE 3.7mph /  5.9km/h 8.1mph /  13km/h 82.7% 0in /  0.0mm
03:04 61.2 °F /  16.2 °C 55.9 °F /  13.3 °C 30.1in /  1018.7hPa NE 4.3mph /  6.9km/h 8mph /  12.9km/h 83% 0in /  0.0mm
03:09 61.2 °F /  16.2 °C 55.9 °F /  13.3 °C 30.1in /  1018.7hPa NE 4.2mph /  6.7km/h 6mph /  9.7km/h 83% 0in /  0.0mm
03:14 61.2 °F /  16.2 °C 55.9 °F /  13.3 °C 30.1in /  1018.7hPa NE 4mph /  6.5km/h 5.4mph /  8.7km/h 83% 0in /  0.0mm
03:19 61.2 °F /  16.2 °C 55.9 °F /  13.3 °C 30.1in /  1018.7hPa NNE 3.6mph /  5.8km/h 6.2mph /  10km/h 83% 0in /  0.0mm
03:24 61.2 °F /  16.2 °C 56.1 °F /  13.4 °C 30.1in /  1018.6hPa NE 2.9mph /  4.6km/h 6mph /  9.7km/h 83.6% 0in /  0.0mm
03:29 61 °F /  16.1 °C 56.1 °F /  13.4 °C 30.1in /  1018.6hPa NE 3.3mph /  5.3km/h 6mph /  9.7km/h 84% 0in /  0.0mm
03:34 61 °F /  16.1 °C 56.1 °F /  13.4 °C 30.1in /  1018.6hPa NE 4mph /  6.5km/h 6mph /  9.7km/h 84% 0in /  0.0mm
03:39 61 °F /  16.1 °C 56.1 °F /  13.4 °C 30.1in /  1018.5hPa NE 3.2mph /  5.2km/h 5mph /  8km/h 84% 0in /  0.0mm
03:44 61 °F /  16.1 °C 56.1 °F /  13.4 °C 30.1in /  1018.5hPa NE 2mph /  3.2km/h 5mph /  8km/h 84% 0in /  0.0mm
03:49 61 °F /  16.1 °C 56.1 °F /  13.4 °C 30.1in /  1018.6hPa Este 1.7mph /  2.8km/h 4mph /  6.4km/h 84% 0in /  0.0mm
03:54 60.8 °F /  16 °C 55.9 °F /  13.3 °C 30.1in /  1018.6hPa NE 1.4mph /  2.2km/h 5mph /  8km/h 84% 0in /  0.0mm
03:59 60.6 °F /  15.9 °C 56.1 °F /  13.4 °C 30.1in /  1018.6hPa NE 2.1mph /  3.4km/h 5.8mph /  9.3km/h 84.8% 0in /  0.0mm
04:04 60.6 °F /  15.9 °C 56.1 °F /  13.4 °C 30.1in /  1018.6hPa NE 2.9mph /  4.6km/h 6mph /  9.7km/h 85% 0in /  0.0mm
04:09 60.4 °F /  15.8 °C 55.9 °F /  13.3 °C 30.1in /  1018.5hPa ENE 3mph /  4.8km/h 6mph /  9.7km/h 85% 0in /  0.0mm
04:14 60.4 °F /  15.8 °C 55.9 °F /  13.3 °C 30.1in /  1018.5hPa NE 3.1mph /  5km/h 5mph /  8km/h 85% 0in /  0.0mm
04:19 60.3 °F /  15.7 °C 55.8 °F /  13.2 °C 30.1in /  1018.5hPa ENE 2.6mph /  4.2km/h 5.2mph /  8.4km/h 84.9% 0in /  0.0mm
04:24 60.3 °F /  15.7 °C 55.2 °F /  12.9 °C 30.1in /  1018.4hPa Este 1.8mph /  2.9km/h 5mph /  8km/h 83.5% 0in /  0.0mm
04:29 60.3 °F /  15.7 °C 54.9 °F /  12.7 °C 30.1in /  1018.4hPa Este 1.9mph /  3km/h 5mph /  8km/h 82.6% 0in /  0.0mm
04:34 60.1 °F /  15.6 °C 53.8 °F /  12.1 °C 30.1in /  1018.5hPa Este 2mph /  3.2km/h 5mph /  8km/h 79.7% 0in /  0.0mm
04:39 59.7 °F /  15.4 °C 52.9 °F /  11.6 °C 30.1in /  1018.5hPa Este 2mph /  3.2km/h 5mph /  8km/h 78.4% 0in /  0.0mm
04:44 59.7 °F /  15.4 °C 52.9 °F /  11.6 °C 30.1in /  1018.5hPa Este 2mph /  3.2km/h 3.5mph /  5.6km/h 78% 0in /  0.0mm
04:49 59.7 °F /  15.4 °C 52.5 °F /  11.4 °C 30.1in /  1018.5hPa NE 1.7mph /  2.8km/h 3.5mph /  5.6km/h 77.3% 0in /  0.0mm
04:54 59.9 °F /  15.5 °C 52.7 °F /  11.5 °C 30.1in /  1018.5hPa NE 1.4mph /  2.2km/h 4mph /  6.4km/h 77.2% 0in /  0.0mm
04:59 60.1 °F /  15.6 °C 53.1 °F /  11.7 °C 30.1in /  1018.5hPa NE 1.9mph /  3km/h 4mph /  6.4km/h 78% 0in /  0.0mm
05:04 60.1 °F /  15.6 °C 53.1 °F /  11.7 °C 30.1in /  1018.5hPa Este 2.4mph /  3.9km/h 4mph /  6.4km/h 77.5% 0in /  0.0mm
05:09 60.1 °F /  15.6 °C 52.9 °F /  11.6 °C 30.1in /  1018.5hPa NE 2.2mph /  3.6km/h 4.7mph /  7.6km/h 77.5% 0in /  0.0mm
05:14 59.7 °F /  15.4 °C 53.1 °F /  11.7 °C 30.1in /  1018.5hPa ENE 2mph /  3.2km/h 5mph /  8km/h 78.6% 0in /  0.0mm
05:19 59.5 °F /  15.3 °C 52.2 °F /  11.2 °C 30.1in /  1018.6hPa NE 2.2mph /  3.5km/h 5mph /  8km/h 76.6% 0in /  0.0mm
05:24 59.4 °F /  15.2 °C 51.8 °F /  11 °C 30.1in /  1018.6hPa NE 2.4mph /  3.9km/h 5mph /  8km/h 76% 0in /  0.0mm
05:29 59.4 °F /  15.2 °C 51.8 °F /  11 °C 30.1in /  1018.6hPa NE 2.2mph /  3.6km/h 5mph /  8km/h 76% 0in /  0.0mm
05:34 59.4 °F /  15.2 °C 52 °F /  11.1 °C 30.1in /  1018.7hPa NE 2mph /  3.2km/h 5.2mph /  8.4km/h 76.7% 0in /  0.0mm
05:39 59.5 °F /  15.3 °C 52.3 °F /  11.3 °C 30.1in /  1018.7hPa NE 2.4mph /  3.8km/h 5.8mph /  9.3km/h 77% 0in /  0.0mm
05:44 59.5 °F /  15.3 °C 52.2 °F /  11.2 °C 30.1in /  1018.7hPa ENE 2.9mph /  4.7km/h 6mph /  9.7km/h 76.7% 0in /  0.0mm
05:49 59.5 °F /  15.3 °C 52.3 °F /  11.3 °C 30.1in /  1018.8hPa NNE 2.3mph /  3.7km/h 4.6mph /  7.4km/h 77% 0in /  0.0mm
05:54 59.4 °F /  15.2 °C 52.5 °F /  11.4 °C 30.1in /  1018.8hPa NNE 1.4mph /  2.2km/h 5mph /  8km/h 78% 0in /  0.0mm
05:59 59.2 °F /  15.1 °C 52.3 °F /  11.3 °C 30.1in /  1018.8hPa NNE 1.7mph /  2.7km/h 5mph /  8km/h 78% 0in /  0.0mm
06:04 59.2 °F /  15.1 °C 52.7 °F /  11.5 °C 30.1in /  1018.8hPa NNE 2mph /  3.2km/h 3.5mph /  5.6km/h 79% 0in /  0.0mm
06:09 59 °F /  15 °C 52.7 °F /  11.5 °C 30.1in /  1018.8hPa NNE 1.7mph /  2.8km/h 4mph /  6.4km/h 79.5% 0in /  0.0mm
06:14 59.2 °F /  15.1 °C 53.6 °F /  12 °C 30.1in /  1018.8hPa ENE 1.4mph /  2.2km/h 5.2mph /  8.4km/h 81.8% 0in /  0.0mm
06:19 59.2 °F /  15.1 °C 53.1 °F /  11.7 °C 30.1in /  1018.8hPa NNE 1.6mph /  2.6km/h 5mph /  8km/h 80.4% 0in /  0.0mm
06:24 59 °F /  15 °C 53.1 °F /  11.7 °C 30.1in /  1018.8hPa NNE 2mph /  3.2km/h 3.5mph /  5.6km/h 80.9% 0in /  0.0mm
06:29 59 °F /  15 °C 53.4 °F /  11.9 °C 30.1in /  1018.8hPa NNE 1.2mph /  2km/h 3mph /  4.8km/h 82% 0in /  0.0mm
06:34 59 °F /  15 °C 53.4 °F /  11.9 °C 30.1in /  1018.8hPa Calm   3mph /  4.8km/h 82% 0in /  0.0mm
06:39 58.8 °F /  14.9 °C 53.6 °F /  12 °C 30.1in /  1018.8hPa Calm   3mph /  4.8km/h 82.9% 0in /  0.0mm
06:44 58.8 °F /  14.9 °C 53.8 °F /  12.1 °C 30.1in /  1018.8hPa Calm   3.5mph /  5.6km/h 83.4% 0in /  0.0mm
06:49 58.8 °F /  14.9 °C 54 °F /  12.2 °C 30.1in /  1018.9hPa Calm   3.5mph /  5.6km/h 84% 0in /  0.0mm
06:54 58.8 °F /  14.9 °C 54.1 °F /  12.3 °C 30.1in /  1018.9hPa Calm   2mph /  3.2km/h 84.5% 0in /  0.0mm
06:59 58.8 °F /  14.9 °C 54.3 °F /  12.4 °C 30.1in /  1018.9hPa Calm   3.1mph /  5km/h 85% 0in /  0.0mm
07:04 59 °F /  15 °C 54.7 °F /  12.6 °C 30.1in /  1019.1hPa Calm   4.6mph /  7.4km/h 85.8% 0in /  0.0mm
07:09 59.2 °F /  15.1 °C 55 °F /  12.8 °C 30.1in /  1019.1hPa NE 0.9mph /  1.5km/h 5mph /  8km/h 86.5% 0in /  0.0mm
07:14 59.2 °F /  15.1 °C 55.2 °F /  12.9 °C 30.1in /  1019.1hPa NE 2.4mph /  3.9km/h 5mph /  8km/h 87% 0in /  0.0mm
07:19 59.2 °F /  15.1 °C 55.4 °F /  13 °C 30.1in /  1019.1hPa NE 2.4mph /  3.9km/h 5.2mph /  8.4km/h 87.2% 0in /  0.0mm
07:24 59.2 °F /  15.1 °C 55.6 °F /  13.1 °C 30.1in /  1019.1hPa NE 2.4mph /  3.9km/h 5mph /  8km/h 88% 0in /  0.0mm
07:29 59.2 °F /  15.1 °C 55.6 °F /  13.1 °C 30.1in /  1019.1hPa NE 2.2mph /  3.6km/h 5mph /  8km/h 88% 0in /  0.0mm
07:34 59.4 °F /  15.2 °C 55.8 °F /  13.2 °C 30.1in /  1019.1hPa NE 2mph /  3.2km/h 4.6mph /  7.4km/h 88.2% 0in /  0.0mm
07:39 59.4 °F /  15.2 °C 55.9 °F /  13.3 °C 30.1in /  1019.1hPa NE 2.2mph /  3.5km/h 5mph /  8km/h 88.3% 0in /  0.0mm
07:44 59.4 °F /  15.2 °C 56.1 °F /  13.4 °C 30.1in /  1019.1hPa ENE 2.4mph /  3.9km/h 4mph /  6.4km/h 88.8% 0in /  0.0mm
07:49 59.5 °F /  15.3 °C 56.1 °F /  13.4 °C 30.1in /  1019.3hPa Este 1.5mph /  2.4km/h 3.5mph /  5.6km/h 88% 0in /  0.0mm
07:54 59.9 °F /  15.5 °C 56.3 °F /  13.5 °C 30.1in /  1019.3hPa Calm   3.1mph /  5km/h 88% 0in /  0.0mm
07:59 60.3 °F /  15.7 °C 56.3 °F /  13.5 °C 30.1in /  1019.3hPa North 0.7mph /  1.1km/h 3.5mph /  5.6km/h 87% 0in /  0.0mm
08:04 60.4 °F /  15.8 °C 56.1 °F /  13.4 °C 30.1in /  1019.3hPa North 1.4mph /  2.2km/h 3mph /  4.8km/h 86% 0in /  0.0mm
08:09 60.6 °F /  15.9 °C 56.5 °F /  13.6 °C 30.1in /  1019.3hPa North 0.9mph /  1.4km/h 2.9mph /  4.7km/h 86.4% 0in /  0.0mm
08:14 61 °F /  16.1 °C 56.8 °F /  13.8 °C 30.1in /  1019.3hPa Calm   3mph /  4.8km/h 86% 0in /  0.0mm
08:19 61.2 °F /  16.2 °C 56.8 °F /  13.8 °C 30.1in /  1019.3hPa Calm   3.5mph /  5.6km/h 85.4% 0in /  0.0mm
08:24 61.5 °F /  16.4 °C 57 °F /  13.9 °C 30.1in /  1019.3hPa Calm   3mph /  4.8km/h 85% 0in /  0.0mm
08:29 61.9 °F /  16.6 °C 57.2 °F /  14 °C 30.1in /  1019.3hPa Calm   4.6mph /  7.4km/h 84.7% 0in /  0.0mm
08:34 62.2 °F /  16.8 °C 57.6 °F /  14.2 °C 30.1in /  1019.3hPa Calm   5mph /  8km/h 84.7% 0in /  0.0mm
08:39 62.8 °F /  17.1 °C 57.9 °F /  14.4 °C 30.1in /  1019.3hPa Calm   3.1mph /  5km/h 84% 0in /  0.0mm
08:44 63.1 °F /  17.3 °C 57.7 °F /  14.3 °C 30.1in /  1019.3hPa Calm   4mph /  6.4km/h 82.5% 0in /  0.0mm
08:49 63.5 °F /  17.5 °C 57.9 °F /  14.4 °C 30.1in /  1019.3hPa NE 0.7mph /  1.1km/h 4.6mph /  7.4km/h 82.2% 0in /  0.0mm
08:54 63.7 °F /  17.6 °C 58.1 °F /  14.5 °C 30.1in /  1019.3hPa ENE 1.8mph /  2.9km/h 5mph /  8km/h 82% 0in /  0.0mm
08:59 63.7 °F /  17.6 °C 58.1 °F /  14.5 °C 30.1in /  1019.3hPa Este 2.1mph /  3.4km/h 5.2mph /  8.4km/h 81.9% 0in /  0.0mm
09:04 63.9 °F /  17.7 °C 58.5 °F /  14.7 °C 30.1in /  1019.3hPa ENE 2.4mph /  3.9km/h 5mph /  8km/h 82.5% 0in /  0.0mm
09:09 64.2 °F /  17.9 °C 58.5 °F /  14.7 °C 30.1in /  1019.3hPa Este 2.2mph /  3.5km/h 5mph /  8km/h 81.6% 0in /  0.0mm
09:14 64.6 °F /  18.1 °C 58.5 °F /  14.7 °C 30.1in /  1019.3hPa NE 1.8mph /  2.9km/h 5.9mph /  9.5km/h 80.5% 0in /  0.0mm
09:19 64.8 °F /  18.2 °C 58.5 °F /  14.7 °C 30.1in /  1019.4hPa NNE 2.3mph /  3.7km/h 6.2mph /  10km/h 80.1% 0in /  0.0mm
09:24 64.9 °F /  18.3 °C 58.5 °F /  14.7 °C 30.1in /  1019.4hPa Este 3.1mph /  5km/h 6mph /  9.7km/h 79.7% 0in /  0.0mm
09:29 65.3 °F /  18.5 °C 58.6 °F /  14.8 °C 30.1in /  1019.4hPa NE 2.8mph /  4.5km/h 5.2mph /  8.4km/h 78.9% 0in /  0.0mm
09:34 65.7 °F /  18.7 °C 58.5 °F /  14.7 °C 30.1in /  1019.4hPa NE 2.4mph /  3.9km/h 5.2mph /  8.4km/h 77.2% 0in /  0.0mm
09:39 65.7 °F /  18.7 °C 58.3 °F /  14.6 °C 30.1in /  1019.2hPa NNE 2.6mph /  4.2km/h 5.9mph /  9.5km/h 77% 0in /  0.0mm
09:44 65.3 °F /  18.5 °C 57.9 °F /  14.4 °C 30.1in /  1019.2hPa NNE 2.9mph /  4.6km/h 6mph /  9.7km/h 77.3% 0in /  0.0mm
09:49 64.9 °F /  18.3 °C 57.9 °F /  14.4 °C 30.1in /  1019.3hPa ENE 2.9mph /  4.7km/h 6mph /  9.7km/h 77.6% 0in /  0.0mm
09:54 64.9 °F /  18.3 °C 57.6 °F /  14.2 °C 30.1in /  1019.3hPa ENE 2.9mph /  4.6km/h 5.9mph /  9.5km/h 77% 0in /  0.0mm
09:59 64.8 °F /  18.2 °C 57.4 °F /  14.1 °C 30.1in /  1019.3hPa ENE 3mph /  4.8km/h 6mph /  9.7km/h 77% 0in /  0.0mm
10:04 64.8 °F /  18.2 °C 57.4 °F /  14.1 °C 30.1in /  1019.3hPa ENE 3.1mph /  5km/h 5mph /  8km/h 77% 0in /  0.0mm
10:09 64.8 °F /  18.2 °C 57.4 °F /  14.1 °C 30.1in /  1019.2hPa NE 2.6mph /  4.2km/h 5mph /  8km/h 77% 0in /  0.0mm
10:14 64.9 °F /  18.3 °C 57.4 °F /  14.1 °C 30.1in /  1019.2hPa NE 1.8mph /  2.9km/h 6.9mph /  11.1km/h 76% 0in /  0.0mm
10:19 65.1 °F /  18.4 °C 56.5 °F /  13.6 °C 30.1in /  1019.2hPa NE 2.2mph /  3.6km/h 7mph /  11.3km/h 73.8% 0in /  0.0mm
10:24 64.9 °F /  18.3 °C 56.1 °F /  13.4 °C 30.1in /  1019.1hPa NE 2.9mph /  4.7km/h 6mph /  9.7km/h 73% 0in /  0.0mm
10:29 65.1 °F /  18.4 °C 56.5 °F /  13.6 °C 30.1in /  1019.1hPa NE 2.5mph /  4.1km/h 5.9mph /  9.5km/h 73.5% 0in /  0.0mm
10:34 65.3 °F /  18.5 °C 56.1 °F /  13.4 °C 30.1in /  1019.1hPa ENE 2mph /  3.2km/h 6.2mph /  10km/h 72.2% 0in /  0.0mm
10:39 65.5 °F /  18.6 °C 56.3 °F /  13.5 °C 30.1in /  1019.1hPa NE 2.6mph /  4.2km/h 6.9mph /  11.1km/h 72.6% 0in /  0.0mm
10:44 65.5 °F /  18.6 °C 57 °F /  13.9 °C 30.1in /  1019.1hPa NE 3.6mph /  5.8km/h 8.5mph /  13.7km/h 74.2% 0in /  0.0mm
10:49 65.5 °F /  18.6 °C 57 °F /  13.9 °C 30.1in /  1019.1hPa NE 4.2mph /  6.8km/h 9mph /  14.5km/h 74.1% 0in /  0.0mm
10:54 65.1 °F /  18.4 °C 56.7 °F /  13.7 °C 30.1in /  1019.1hPa NNE 5.2mph /  8.4km/h 9mph /  14.5km/h 74% 0in /  0.0mm
10:59 65.1 °F /  18.4 °C 56.7 °F /  13.7 °C 30.1in /  1019.1hPa ENE 4.7mph /  7.5km/h 6mph /  9.7km/h 74% 0in /  0.0mm
11:04 65.5 °F /  18.6 °C 56.1 °F /  13.4 °C 30.1in /  1019.1hPa NE 4mph /  6.5km/h 8.5mph /  13.7km/h 72% 0in /  0.0mm
11:09 65.7 °F /  18.7 °C 55.9 °F /  13.3 °C 30.1in /  1019.1hPa ENE 3.9mph /  6.2km/h 9mph /  14.5km/h 70.9% 0in /  0.0mm
11:14 65.8 °F /  18.8 °C 55.9 °F /  13.3 °C 30.1in /  1019.1hPa NE 3.6mph /  5.8km/h 6mph /  9.7km/h 70.1% 0in /  0.0mm
11:19 66 °F /  18.9 °C 55 °F /  12.8 °C 30.1in /  1019.1hPa NE 3.4mph /  5.5km/h 8.1mph /  13km/h 67.8% 0in /  0.0mm
11:24 66.2 °F /  19 °C 55 °F /  12.8 °C 30.1in /  1019.0hPa NE 3.1mph /  5km/h 8mph /  12.9km/h 67.2% 0in /  0.0mm
11:29 66.4 °F /  19.1 °C 54.9 °F /  12.7 °C 30.1in /  1019.0hPa NE 3.7mph /  6km/h 9.7mph /  15.6km/h 66.5% 0in /  0.0mm
11:34 66.4 °F /  19.1 °C 54.7 °F /  12.6 °C 30.1in /  1019.0hPa ENE 4.7mph /  7.6km/h 10mph /  16.1km/h 66% 0in /  0.0mm
11:39 66.4 °F /  19.1 °C 54.5 °F /  12.5 °C 30.1in /  1019.0hPa Este 4.9mph /  7.9km/h 9.2mph /  14.8km/h 65.6% 0in /  0.0mm
11:44 66.4 °F /  19.1 °C 54.3 °F /  12.4 °C 30.1in /  1019.0hPa ESE 5.2mph /  8.4km/h 9.2mph /  14.8km/h 65% 0in /  0.0mm
11:49 66.6 °F /  19.2 °C 54.3 °F /  12.4 °C 30.1in /  1019.0hPa SE 5.2mph /  8.4km/h 9mph /  14.5km/h 64.7% 0in /  0.0mm
11:54 66.6 °F /  19.2 °C 54.1 °F /  12.3 °C 30.1in /  1019.0hPa SE 5.2mph /  8.4km/h 8mph /  12.9km/h 64% 0in /  0.0mm
11:59 66.6 °F /  19.2 °C 54 °F /  12.2 °C 30.1in /  1019.0hPa ESE 5mph /  8km/h 9.2mph /  14.8km/h 63.6% 0in /  0.0mm
12:04 66.6 °F /  19.2 °C 54 °F /  12.2 °C 30.1in /  1019.0hPa ESE 4.7mph /  7.6km/h 9mph /  14.5km/h 63.8% 0in /  0.0mm
12:09 66.7 °F /  19.3 °C 54 °F /  12.2 °C 30.1in /  1018.9hPa ESE 4.9mph /  7.9km/h 9.2mph /  14.8km/h 63.6% 0in /  0.0mm
12:14 66.6 °F /  19.2 °C 53.4 °F /  11.9 °C 30.1in /  1018.9hPa Este 5.2mph /  8.4km/h 10.4mph /  16.7km/h 62.5% 0in /  0.0mm
12:19 66.6 °F /  19.2 °C 53.4 °F /  11.9 °C 30.1in /  1018.9hPa Este 5.5mph /  8.8km/h 10mph /  16.1km/h 62.5% 0in /  0.0mm
12:24 66.6 °F /  19.2 °C 53.2 °F /  11.8 °C 30.1in /  1018.7hPa ESE 5.9mph /  9.5km/h 9mph /  14.5km/h 62% 0in /  0.0mm
12:29 66.9 °F /  19.4 °C 53.4 °F /  11.9 °C 30.1in /  1018.7hPa SE 5.7mph /  9.2km/h 8.1mph /  13km/h 61.8% 0in /  0.0mm
12:34 67.3 °F /  19.6 °C 53.4 °F /  11.9 °C 30.1in /  1018.7hPa SE 5.4mph /  8.7km/h 8.1mph /  13km/h 61% 0in /  0.0mm
12:39 67.3 °F /  19.6 °C 53.4 °F /  11.9 °C 30.1in /  1018.6hPa SE 5.3mph /  8.6km/h 10.4mph /  16.7km/h 61% 0in /  0.0mm
12:44 67.5 °F /  19.7 °C 53.4 °F /  11.9 °C 30.1in /  1018.6hPa SE 5.2mph /  8.4km/h 10mph /  16.1km/h 61% 0in /  0.0mm
12:49 67.6 °F /  19.8 °C 54 °F /  12.2 °C 30.1in /  1018.6hPa ESE 4.8mph /  7.8km/h 9.2mph /  14.8km/h 61.3% 0in /  0.0mm
12:54 68 °F /  20 °C 53.8 °F /  12.1 °C 30.1in /  1018.4hPa ESE 4.3mph /  6.9km/h 10.7mph /  17.2km/h 60.6% 0in /  0.0mm
12:59 68.4 °F /  20.2 °C 53.8 °F /  12.1 °C 30.1in /  1018.4hPa SE 5.1mph /  8.2km/h 11mph /  17.7km/h 60% 0in /  0.0mm
13:04 68.4 °F /  20.2 °C 53.8 °F /  12.1 °C 30.1in /  1018.4hPa Sur 5.9mph /  9.5km/h 11mph /  17.7km/h 59.5% 0in /  0.0mm
13:09 68.4 °F /  20.2 °C 53.8 °F /  12.1 °C 30.1in /  1018.2hPa SE 5.7mph /  9.2km/h 11.5mph /  18.5km/h 59.5% 0in /  0.0mm
13:14 68.2 °F /  20.1 °C 53.4 °F /  11.9 °C 30.1in /  1018.2hPa Sur 5.4mph /  8.7km/h 12mph /  19.3km/h 59% 0in /  0.0mm
13:19 68.5 °F /  20.3 °C 53.6 °F /  12 °C 30.1in /  1018.2hPa ESE 5.6mph /  9km/h 11.5mph /  18.5km/h 59.1% 0in /  0.0mm
13:24 68.9 °F /  20.5 °C 53.6 °F /  12 °C 30.1in /  1018.0hPa SSE 5.9mph /  9.5km/h 12mph /  19.3km/h 58.2% 0in /  0.0mm
13:29 69.1 °F /  20.6 °C 53.6 °F /  12 °C 30.1in /  1018.0hPa SO 5.7mph /  9.1km/h 9mph /  14.5km/h 57.7% 0in /  0.0mm
13:34 68.9 °F /  20.5 °C 53.4 °F /  11.9 °C 30.1in /  1018.0hPa Este 5.2mph /  8.4km/h 12.7mph /  20.4km/h 58% 0in /  0.0mm
13:39 69.1 °F /  20.6 °C 54 °F /  12.2 °C 30.1in /  1017.8hPa Este 5.3mph /  8.5km/h 13mph /  20.9km/h 58.5% 0in /  0.0mm
13:44 69.8 °F /  21 °C 54 °F /  12.2 °C 30.1in /  1017.8hPa ESE 5.4mph /  8.7km/h 12mph /  19.3km/h 57.2% 0in /  0.0mm
13:49 70 °F /  21.1 °C 53.6 °F /  12 °C 30.1in /  1017.8hPa SE 5.3mph /  8.6km/h 12mph /  19.3km/h 56.1% 0in /  0.0mm
13:54 70.2 °F /  21.2 °C 53.8 °F /  12.1 °C 30.1in /  1017.5hPa NE 5.2mph /  8.4km/h 10.4mph /  16.7km/h 56.3% 0in /  0.0mm
13:59 70.3 °F /  21.3 °C 53.6 °F /  12 °C 30.1in /  1017.5hPa Este 5.3mph /  8.5km/h 10.7mph /  17.2km/h 55.7% 0in /  0.0mm
14:04 69.8 °F /  21 °C 53.2 °F /  11.8 °C 30.1in /  1017.5hPa ENE 5.4mph /  8.7km/h 11mph /  17.7km/h 55.5% 0in /  0.0mm
14:09 69.6 °F /  20.9 °C 53.1 °F /  11.7 °C 30.1in /  1017.5hPa Este 5.3mph /  8.6km/h 11mph /  17.7km/h 55.8% 0in /  0.0mm
14:14 70.2 °F /  21.2 °C 53.6 °F /  12 °C 30.1in /  1017.5hPa NO 5.2mph /  8.4km/h 9mph /  14.5km/h 55.7% 0in /  0.0mm
14:19 71.1 °F /  21.7 °C 53.8 °F /  12.1 °C 30.1in /  1017.5hPa ENE 5mph /  8.1km/h 9.2mph /  14.8km/h 54.5% 0in /  0.0mm
14:24 71.4 °F /  21.9 °C 53.8 °F /  12.1 °C 30in /  1017.2hPa Este 4.7mph /  7.6km/h 9mph /  14.5km/h 53.6% 0in /  0.0mm
14:29 71.8 °F /  22.1 °C 53.6 °F /  12 °C 30in /  1017.2hPa NE 4.5mph /  7.3km/h 13mph /  20.9km/h 52.8% 0in /  0.0mm
14:34 71.8 °F /  22.1 °C 53.6 °F /  12 °C 30in /  1017.2hPa NE 4.3mph /  6.9km/h 13mph /  20.9km/h 52.8% 0in /  0.0mm
14:39 71.6 °F /  22 °C 53.1 °F /  11.7 °C 30in /  1017.1hPa NNE 4.7mph /  7.5km/h 10mph /  16.1km/h 52% 0in /  0.0mm
14:44 71.4 °F /  21.9 °C 52.9 °F /  11.6 °C 30in /  1017.1hPa NO 5.2mph /  8.4km/h 10.4mph /  16.7km/h 52.1% 0in /  0.0mm
14:49 71.8 °F /  22.1 °C 52.7 °F /  11.5 °C 30in /  1017.1hPa ENE 4.8mph /  7.8km/h 10.4mph /  16.7km/h 51.3% 0in /  0.0mm
14:54 72 °F /  22.2 °C 52.5 °F /  11.4 °C 30in /  1016.9hPa NNO 4.3mph /  6.9km/h 10mph /  16.1km/h 50.6% 0in /  0.0mm
14:59 72.3 °F /  22.4 °C 52.9 °F /  11.6 °C 30in /  1016.9hPa NE 4.5mph /  7.2km/h 11.8mph /  19km/h 50.6% 0in /  0.0mm
15:04 72.3 °F /  22.4 °C 52.5 °F /  11.4 °C 30in /  1016.9hPa NE 4.7mph /  7.6km/h 12mph /  19.3km/h 49.9% 0in /  0.0mm
15:09 72.3 °F /  22.4 °C 52.5 °F /  11.4 °C 30in /  1016.6hPa NNE 5.3mph /  8.5km/h 15mph /  24.1km/h 49.7% 0in /  0.0mm
15:14 72.5 °F /  22.5 °C 52.5 °F /  11.4 °C 30in /  1016.6hPa NE 6.2mph /  10km/h 15mph /  24.1km/h 49.4% 0in /  0.0mm
15:19 72.9 °F /  22.7 °C 52.2 °F /  11.2 °C 30in /  1016.6hPa ENE 5.6mph /  9km/h 9.2mph /  14.8km/h 48.4% 0in /  0.0mm
15:24 72.9 °F /  22.7 °C 52 °F /  11.1 °C 30in /  1016.6hPa Este 4.7mph /  7.6km/h 11.8mph /  19km/h 47.8% 0in /  0.0mm
15:29 73.2 °F /  22.9 °C 52.2 °F /  11.2 °C 30in /  1016.6hPa NE 5.3mph /  8.5km/h 13.5mph /  21.7km/h 47.8% 0in /  0.0mm
15:34 73.2 °F /  22.9 °C 52 °F /  11.1 °C 30in /  1016.6hPa NE 6.2mph /  10km/h 14mph /  22.5km/h 47.2% 0in /  0.0mm
15:39 73.6 °F /  23.1 °C 51.6 °F /  10.9 °C 30in /  1016.4hPa NE 5.8mph /  9.3km/h 14mph /  22.5km/h 46.1% 0in /  0.0mm
15:44 73.9 °F /  23.3 °C 51.6 °F /  10.9 °C 30in /  1016.4hPa NE 5.2mph /  8.4km/h 11.8mph /  19km/h 45.7% 0in /  0.0mm
15:49 73.9 °F /  23.3 °C 51.4 °F /  10.8 °C 30in /  1016.4hPa ENE 5.6mph /  9km/h 13.7mph /  22km/h 45.3% 0in /  0.0mm
15:54 73.8 °F /  23.2 °C 51.1 °F /  10.6 °C 30in /  1016.3hPa NE 6.2mph /  10km/h 14mph /  22.5km/h 44.9% 0in /  0.0mm
15:59 73.9 °F /  23.3 °C 50.7 °F /  10.4 °C 30in /  1016.3hPa ENE 6.8mph /  10.9km/h 13mph /  20.9km/h 44.4% 0in /  0.0mm
16:04 73.9 °F /  23.3 °C 50.5 °F /  10.3 °C 30in /  1016.3hPa ENE 7.4mph /  11.9km/h 13.8mph /  22.2km/h 44% 0in /  0.0mm
16:09 73.9 °F /  23.3 °C 50.5 °F /  10.3 °C 30in /  1016.3hPa ESE 6.3mph /  10.2km/h 14mph /  22.5km/h 43.7% 0in /  0.0mm
16:14 74.1 °F /  23.4 °C 50.2 °F /  10.1 °C 30in /  1016.3hPa NE 4.7mph /  7.6km/h 14mph /  22.5km/h 43% 0in /  0.0mm
16:19 74.5 °F /  23.6 °C 50.4 °F /  10.2 °C 30in /  1016.3hPa ENE 5.6mph /  9km/h 12mph /  19.3km/h 42.7% 0in /  0.0mm
16:24 74.5 °F /  23.6 °C 50.2 °F /  10.1 °C 30in /  1016.1hPa ENE 6.9mph /  11.1km/h 10.4mph /  16.7km/h 42.7% 0in /  0.0mm
16:29 74.3 °F /  23.5 °C 50.2 °F /  10.1 °C 30in /  1016.1hPa NNE 6.1mph /  9.8km/h 10mph /  16.1km/h 42.7% 0in /  0.0mm
16:34 74.7 °F /  23.7 °C 50 °F /  10 °C 30in /  1016.1hPa North 4.7mph /  7.6km/h 7mph /  11.3km/h 42% 0in /  0.0mm
16:39 75 °F /  23.9 °C 50.4 °F /  10.2 °C 30in /  1015.9hPa ENE 4mph /  6.5km/h 7mph /  11.3km/h 41.9% 0in /  0.0mm
16:44 75.6 °F /  24.2 °C 50.4 °F /  10.2 °C 30in /  1015.9hPa NE 2.9mph /  4.7km/h 12.7mph /  20.4km/h 41.2% 0in /  0.0mm
16:49 75.2 °F /  24 °C 50.4 °F /  10.2 °C 30in /  1015.9hPa NE 4.4mph /  7.1km/h 13mph /  20.9km/h 41.7% 0in /  0.0mm
16:54 75 °F /  23.9 °C 50.7 °F /  10.4 °C 30in /  1015.7hPa NNE 6.9mph /  11.1km/h 13mph /  20.9km/h 42.6% 0in /  0.0mm
16:59 75.2 °F /  24 °C 51.3 °F /  10.7 °C 30in /  1015.7hPa ENE 6.9mph /  11.1km/h 12mph /  19.3km/h 43% 0in /  0.0mm
17:04 75.6 °F /  24.2 °C 51.6 °F /  10.9 °C 30in /  1015.7hPa Este 6.9mph /  11.1km/h 13mph /  20.9km/h 43.2% 0in /  0.0mm
17:09 75.2 °F /  24 °C 51.8 °F /  11 °C 30in /  1015.6hPa Este 6.9mph /  11.1km/h 13mph /  20.9km/h 44% 0in /  0.0mm
17:14 75 °F /  23.9 °C 52 °F /  11.1 °C 30in /  1015.6hPa ESE 6.9mph /  11.1km/h 13.7mph /  22km/h 44.6% 0in /  0.0mm
17:19 75 °F /  23.9 °C 52.2 °F /  11.2 °C 30in /  1015.7hPa ESE 7.1mph /  11.4km/h 15mph /  24.1km/h 45% 0in /  0.0mm
17:24 74.8 °F /  23.8 °C 52.2 °F /  11.2 °C 30in /  1015.7hPa ESE 7.4mph /  11.9km/h 15mph /  24.1km/h 45.2% 0in /  0.0mm
17:29 75 °F /  23.9 °C 52.2 °F /  11.2 °C 30in /  1015.7hPa SE 7.5mph /  12km/h 13.8mph /  22.2km/h 45.1% 0in /  0.0mm
17:34 74.7 °F /  23.7 °C 52.2 °F /  11.2 °C 30in /  1015.7hPa SE 7.6mph /  12.2km/h 14mph /  22.5km/h 45.4% 0in /  0.0mm
17:39 74.3 °F /  23.5 °C 52.2 °F /  11.2 °C 30in /  1015.7hPa ESE 8mph /  12.8km/h 14mph /  22.5km/h 46% 0in /  0.0mm
17:44 74.5 °F /  23.6 °C 52.3 °F /  11.3 °C 30in /  1015.7hPa SE 8.5mph /  13.7km/h 14mph /  22.5km/h 46% 0in /  0.0mm
17:49 74.8 °F /  23.8 °C 52.3 °F /  11.3 °C 30in /  1015.8hPa ESE 7.8mph /  12.6km/h 13mph /  20.9km/h 45.5% 0in /  0.0mm
17:54 74.8 °F /  23.8 °C 52.2 °F /  11.2 °C 30in /  1015.8hPa ESE 6.9mph /  11.1km/h 12mph /  19.3km/h 45% 0in /  0.0mm
17:59 74.8 °F /  23.8 °C 52 °F /  11.1 °C 30in /  1015.8hPa ESE 6.9mph /  11.1km/h 12mph /  19.3km/h 45% 0in /  0.0mm
18:04 74.3 °F /  23.5 °C 51.4 °F /  10.8 °C 30in /  1015.9hPa ESE 6.9mph /  11.1km/h 13mph /  20.9km/h 44.9% 0in /  0.0mm
18:09 73.9 °F /  23.3 °C 51.4 °F /  10.8 °C 30in /  1015.9hPa ESE 7.2mph /  11.6km/h 13mph /  20.9km/h 45.1% 0in /  0.0mm
18:14 73.9 °F /  23.3 °C 51.3 °F /  10.7 °C 30in /  1015.9hPa Este 7.6mph /  12.2km/h 13mph /  20.9km/h 45% 0in /  0.0mm
18:19 73.8 °F /  23.2 °C 51.6 °F /  10.9 °C 30in /  1016.1hPa ESE 7.5mph /  12.1km/h 13.8mph /  22.2km/h 45.8% 0in /  0.0mm
18:24 73.4 °F /  23 °C 51.4 °F /  10.8 °C 30in /  1016.1hPa ESE 7.4mph /  11.9km/h 14mph /  22.5km/h 46% 0in /  0.0mm
18:29 73.2 °F /  22.9 °C 51.6 °F /  10.9 °C 30in /  1016.1hPa ESE 7.9mph /  12.7km/h 16.3mph /  26.2km/h 46.7% 0in /  0.0mm
18:34 73 °F /  22.8 °C 51.8 °F /  11 °C 30in /  1016.4hPa ESE 8.7mph /  14km/h 16.1mph /  25.9km/h 47.3% 0in /  0.0mm
18:39 73.2 °F /  22.9 °C 52 °F /  11.1 °C 30in /  1016.4hPa ENE 8mph /  12.8km/h 13.7mph /  22km/h 47.1% 0in /  0.0mm
18:44 73.2 °F /  22.9 °C 52.2 °F /  11.2 °C 30in /  1016.4hPa NE 6.9mph /  11.1km/h 14mph /  22.5km/h 47.6% 0in /  0.0mm
18:49 72.5 °F /  22.5 °C 52 °F /  11.1 °C 30in /  1016.5hPa ENE 7.1mph /  11.4km/h 16.3mph /  26.2km/h 48.4% 0in /  0.0mm
18:54 72.1 °F /  22.3 °C 52 °F /  11.1 °C 30in /  1016.5hPa NE 7.4mph /  11.9km/h 16.1mph /  25.9km/h 49% 0in /  0.0mm
18:59 71.6 °F /  22 °C 51.8 °F /  11 °C 30in /  1016.5hPa NE 8.7mph /  14km/h 16mph /  25.7km/h 49.9% 0in /  0.0mm
19:04 71.2 °F /  21.8 °C 51.6 °F /  10.9 °C 30in /  1016.6hPa NE 10mph /  16.1km/h 15mph /  24.1km/h 50% 0in /  0.0mm
19:09 71.2 °F /  21.8 °C 51.6 °F /  10.9 °C 30in /  1016.6hPa NE 9.5mph /  15.3km/h 16.3mph /  26.2km/h 50% 0in /  0.0mm
19:14 71.1 °F /  21.7 °C 52 °F /  11.1 °C 30in /  1016.6hPa ENE 8.7mph /  14km/h 16.1mph /  25.9km/h 50.8% 0in /  0.0mm
19:19 71.2 °F /  21.8 °C 52.2 °F /  11.2 °C 30in /  1016.7hPa ENE 8.2mph /  13.2km/h 16mph /  25.7km/h 51.1% 0in /  0.0mm
19:24 71.2 °F /  21.8 °C 52.3 °F /  11.3 °C 30in /  1016.7hPa ENE 7.4mph /  11.9km/h 16.3mph /  26.2km/h 51.4% 0in /  0.0mm
19:29 71.1 °F /  21.7 °C 52.2 °F /  11.2 °C 30in /  1016.7hPa ENE 7.4mph /  11.9km/h 16mph /  25.7km/h 51.6% 0in /  0.0mm
19:34 70.7 °F /  21.5 °C 52.2 °F /  11.2 °C 30in /  1016.9hPa NE 7.4mph /  11.9km/h 13.5mph /  21.7km/h 52% 0in /  0.0mm
19:39 70.5 °F /  21.4 °C 52 °F /  11.1 °C 30in /  1016.9hPa ENE 7.2mph /  11.6km/h 13.8mph /  22.2km/h 52% 0in /  0.0mm
19:44 70.2 °F /  21.2 °C 52.2 °F /  11.2 °C 30in /  1016.9hPa ENE 6.9mph /  11.1km/h 14mph /  22.5km/h 52.8% 0in /  0.0mm
19:49 70.2 °F /  21.2 °C 52.3 °F /  11.3 °C 30in /  1017.1hPa ENE 7.1mph /  11.4km/h 13mph /  20.9km/h 53.3% 0in /  0.0mm
19:54 69.8 °F /  21 °C 52.3 °F /  11.3 °C 30in /  1017.1hPa ENE 7.4mph /  11.9km/h 14.5mph /  23.3km/h 54% 0in /  0.0mm
19:59 69.6 °F /  20.9 °C 52.5 °F /  11.4 °C 30in /  1017.1hPa NE 7mph /  11.2km/h 15mph /  24.1km/h 54.6% 0in /  0.0mm
20:04 69.4 °F /  20.8 °C 52.7 °F /  11.5 °C 30in /  1017.3hPa NE 6.4mph /  10.3km/h 15mph /  24.1km/h 55.4% 0in /  0.0mm
20:09 69.3 °F /  20.7 °C 52.9 °F /  11.6 °C 30in /  1017.3hPa NE 7.2mph /  11.6km/h 15.2mph /  24.5km/h 56.1% 0in /  0.0mm
20:14 68.9 °F /  20.5 °C 53.1 °F /  11.7 °C 30in /  1017.3hPa ENE 8.5mph /  13.7km/h 15mph /  24.1km/h 57% 0in /  0.0mm
20:19 68.7 °F /  20.4 °C 53.1 °F /  11.7 °C 30in /  1017.4hPa NE 7.9mph /  12.7km/h 13mph /  20.9km/h 57.1% 0in /  0.0mm
20:24 68.5 °F /  20.3 °C 53.2 °F /  11.8 °C 30in /  1017.4hPa NE 6.9mph /  11.1km/h 14mph /  22.5km/h 58% 0in /  0.0mm
20:29 68.4 °F /  20.2 °C 53.1 °F /  11.7 °C 30in /  1017.4hPa ENE 7.1mph /  11.4km/h 14mph /  22.5km/h 58.3% 0in /  0.0mm
20:34 68.2 °F /  20.1 °C 53.2 °F /  11.8 °C 30.1in /  1017.6hPa ENE 7.4mph /  11.9km/h 14mph /  22.5km/h 59% 0in /  0.0mm
20:39 67.8 °F /  19.9 °C 53.1 °F /  11.7 °C 30.1in /  1017.6hPa NE 6.6mph /  10.6km/h 14mph /  22.5km/h 59% 0in /  0.0mm
20:44 67.8 °F /  19.9 °C 53.1 °F /  11.7 °C 30.1in /  1017.6hPa NE 5.4mph /  8.7km/h 12mph /  19.3km/h 59% 0in /  0.0mm
20:49 67.6 °F /  19.8 °C 52.9 °F /  11.6 °C 30.1in /  1017.7hPa NE 5.4mph /  8.7km/h 11.4mph /  18.3km/h 59.2% 0in /  0.0mm
20:54 67.5 °F /  19.7 °C 53.1 °F /  11.7 °C 30.1in /  1017.7hPa NE 5.4mph /  8.7km/h 12mph /  19.3km/h 60% 0in /  0.0mm
20:59 67.1 °F /  19.5 °C 52.9 °F /  11.6 °C 30.1in /  1017.7hPa NE 5.8mph /  9.3km/h 12mph /  19.3km/h 60.5% 0in /  0.0mm
21:04 66.7 °F /  19.3 °C 52.9 °F /  11.6 °C 30.1in /  1017.9hPa NE 6.2mph /  10km/h 12mph /  19.3km/h 61% 0in /  0.0mm
21:09 66.6 °F /  19.2 °C 52.7 °F /  11.5 °C 30.1in /  1017.9hPa NE 6.6mph /  10.7km/h 13mph /  20.9km/h 61.2% 0in /  0.0mm
21:14 66.4 °F /  19.1 °C 52.9 °F /  11.6 °C 30.1in /  1017.9hPa NE 7.4mph /  11.9km/h 13mph /  20.9km/h 62% 0in /  0.0mm
21:19 66 °F /  18.9 °C 52.7 °F /  11.5 °C 30.1in /  1018.3hPa NE 7.4mph /  11.9km/h 13mph /  20.9km/h 62% 0in /  0.0mm
21:24 65.8 °F /  18.8 °C 52.7 °F /  11.5 °C 30.1in /  1018.3hPa NE 7.4mph /  11.9km/h 13mph /  20.9km/h 62.2% 0in /  0.0mm
21:29 65.8 °F /  18.8 °C 52.9 °F /  11.6 °C 30.1in /  1018.3hPa ENE 6.8mph /  11km/h 10mph /  16.1km/h 63% 0in /  0.0mm
21:34 65.7 °F /  18.7 °C 52.7 °F /  11.5 °C 30.1in /  1018.5hPa ENE 5.9mph /  9.5km/h 9mph /  14.5km/h 63% 0in /  0.0mm
21:39 65.7 °F /  18.7 °C 52.7 °F /  11.5 °C 30.1in /  1018.5hPa Este 4.8mph /  7.7km/h 6.9mph /  11.1km/h 63% 0in /  0.0mm
21:44 65.5 °F /  18.6 °C 52.9 °F /  11.6 °C 30.1in /  1018.5hPa ENE 3.1mph /  5km/h 7mph /  11.3km/h 63.8% 0in /  0.0mm
21:49 65.5 °F /  18.6 °C 53.1 °F /  11.7 °C 30.1in /  1018.6hPa NNE 2.9mph /  4.6km/h 6.4mph /  10.3km/h 64% 0in /  0.0mm
21:54 65.1 °F /  18.4 °C 52.7 °F /  11.5 °C 30.1in /  1018.6hPa NE 2.4mph /  3.9km/h 8.1mph /  13km/h 64% 0in /  0.0mm
21:59 64.9 °F /  18.3 °C 52.5 °F /  11.4 °C 30.1in /  1018.6hPa NE 3.8mph /  6.1km/h 8.1mph /  13km/h 64% 0in /  0.0mm
22:04 64.9 °F /  18.3 °C 52.3 °F /  11.3 °C 30.1in /  1018.8hPa NE 5.2mph /  8.4km/h 8mph /  12.9km/h 64% 0in /  0.0mm
22:09 64.9 °F /  18.3 °C 52.5 °F /  11.4 °C 30.1in /  1018.8hPa NE 4.8mph /  7.8km/h 8.1mph /  13km/h 64% 0in /  0.0mm
22:14 64.8 °F /  18.2 °C 52.3 °F /  11.3 °C 30.1in /  1018.8hPa NE 4.3mph /  6.9km/h 8.1mph /  13km/h 64% 0in /  0.0mm
22:19 64.8 °F /  18.2 °C 52.2 °F /  11.2 °C 30.1in /  1019.0hPa NE 4.5mph /  7.2km/h 8.1mph /  13km/h 64% 0in /  0.0mm
22:24 64.8 °F /  18.2 °C 52.3 °F /  11.3 °C 30.1in /  1019.0hPa NE 4.7mph /  7.6km/h 8mph /  12.9km/h 64% 0in /  0.0mm
22:29 64.6 °F /  18.1 °C 52.2 °F /  11.2 °C 30.1in /  1019.0hPa NE 4.5mph /  7.3km/h 8.5mph /  13.7km/h 64% 0in /  0.0mm
22:34 64.4 °F /  18 °C 52 °F /  11.1 °C 30.1in /  1019.2hPa NE 4.3mph /  6.9km/h 9mph /  14.5km/h 64% 0in /  0.0mm
22:39 64.2 °F /  17.9 °C 52.2 °F /  11.2 °C 30.1in /  1019.2hPa NE 4.5mph /  7.2km/h 8mph /  12.9km/h 65% 0in /  0.0mm
22:44 64 °F /  17.8 °C 52 °F /  11.1 °C 30.1in /  1019.2hPa NE 4.7mph /  7.6km/h 7.4mph /  11.9km/h 65% 0in /  0.0mm
22:49 63.9 °F /  17.7 °C 52.2 °F /  11.2 °C 30.1in /  1019.3hPa NE 4.7mph /  7.6km/h 7.4mph /  11.9km/h 65.8% 0in /  0.0mm
22:54 63.7 °F /  17.6 °C 52.2 °F /  11.2 °C 30.1in /  1019.3hPa NE 4.7mph /  7.6km/h 8.1mph /  13km/h 66% 0in /  0.0mm
22:59 63.7 °F /  17.6 °C 52.2 °F /  11.2 °C 30.1in /  1019.3hPa NE 4.7mph /  7.6km/h 8mph /  12.9km/h 66% 0in /  0.0mm
23:04 63.7 °F /  17.6 °C 52 °F /  11.1 °C 30.1in /  1019.6hPa NE 4.7mph /  7.6km/h 7.4mph /  11.9km/h 66.1% 0in /  0.0mm
23:09 63.5 °F /  17.5 °C 52.3 °F /  11.3 °C 30.1in /  1019.6hPa NNE 4.5mph /  7.3km/h 7mph /  11.3km/h 67% 0in /  0.0mm
23:14 63.3 °F /  17.4 °C 52.3 °F /  11.3 °C 30.1in /  1019.6hPa NE 4.3mph /  6.9km/h 6.2mph /  10km/h 67.5% 0in /  0.0mm
23:19 63.1 °F /  17.3 °C 52.3 °F /  11.3 °C 30.1in /  1019.7hPa NNE 4mph /  6.5km/h 6mph /  9.7km/h 68% 0in /  0.0mm
23:24 63 °F /  17.2 °C 52.3 °F /  11.3 °C 30.1in /  1019.7hPa NE 3.6mph /  5.8km/h 6mph /  9.7km/h 68% 0in /  0.0mm
23:29 63 °F /  17.2 °C 52.5 °F /  11.4 °C 30.1in /  1019.7hPa NE 3.4mph /  5.5km/h 5mph /  8km/h 68.8% 0in /  0.0mm
23:34 62.8 °F /  17.1 °C 52.5 °F /  11.4 °C 30.1in /  1019.7hPa NE 3.1mph /  5km/h 5.9mph /  9.5km/h 69% 0in /  0.0mm
23:39 62.8 °F /  17.1 °C 52.5 °F /  11.4 °C 30.1in /  1019.7hPa NE 3.3mph /  5.3km/h 6.2mph /  10km/h 69% 0in /  0.0mm
23:44 62.6 °F /  17 °C 52.3 °F /  11.3 °C 30.1in /  1019.7hPa NE 3.6mph /  5.8km/h 6mph /  9.7km/h 69% 0in /  0.0mm
23:49 62.4 °F /  16.9 °C 52.5 °F /  11.4 °C 30.1in /  1019.7hPa NE 3.7mph /  6km/h 7.4mph /  11.9km/h 69.9% 0in /  0.0mm
23:54 62.4 °F /  16.9 °C 52.5 °F /  11.4 °C 30.1in /  1019.7hPa NE 4mph /  6.5km/h 7mph /  11.3km/h 70% 0in /  0.0mm
23:59 62.4 °F /  16.9 °C 52.5 °F /  11.4 °C 30.1in /  1019.7hPa NE 4.2mph /  6.7km/h 6.9mph /  11.1km/h 70% 0in /  0.0mm
Murcia-Puente Tocinos, España
Compliments of Weather Underground - 3.5 mb

La estación de MeteoMurcia.com, publica sus datos en los siguientes proyectos:

Weather Underground PWS IMURCIAP2 Meteoclimatic www.awekas.at

W3Counter
Web Analytics